CDT,Max TemperatureF,Mean TemperatureF,Min TemperatureF,Max Dew PointF,MeanDew PointF,Min DewpointF,Max Humidity, Mean Humidity, Min Humidity, Max Sea Level PressureIn, Mean Sea Level PressureIn, Min Sea Level PressureIn, Max VisibilityMiles, Mean VisibilityMiles, Min VisibilityMiles, Max Wind SpeedMPH, Mean Wind SpeedMPH, Max Gust SpeedMPH,PrecipitationIn, CloudCover, Events, WindDirDegrees
2013-4-1,79,66,53,61,53,46,100,78,31,30.16,30.05,29.93,10,6,0,6,1,,0.00,1,Fog,33
2013-4-2,77,66,54,65,56,48,86,71,48,30.14,30.07,29.94,10,9,5,8,1,,0.02,3,Rain,100
2013-4-3,63,56,48,52,48,46,94,89,67,30.76,30.04,29.80,10,8,2,13,7,26,0.93,8,Rain,27
2013-4-4,53,50,46,44,42,42,87,79,71,30.20,30.11,30.04,10,10,4,7,3,,0.00,8,,330
2013-4-5,73,58,43,47,42,40,90,66,33,31.00,30.27,30.11,10,10,9,7,4,,0.00,1,,340
2013-4-6,75,60,46,53,49,44,93,70,44,30.19,30.13,30.06,10,10,10,10,2,21,0.00,0,,174
2013-4-7,77,67,57,59,56,54,88,71,50,30.11,30.04,29.97,10,10,10,8,2,20,0.00,6,,140
2013-4-8,80,72,64,64,61,59,90,72,48,29.99,29.93,29.86,10,10,10,12,5,22,0.00,5,Rain-Thunderstorm,174
2013-4-9,80,73,66,70,68,63,87,79,69,29.96,29.90,29.82,10,10,9,12,6,28,0.00,7,,161
2013-4-10,82,68,54,70,67,51,93,78,63,29.92,29.84,29.72,10,10,6,10,6,28,0.05,8,Rain-Thunderstorm,173
2013-4-11,64,55,46,50,46,43,94,87,47,30.60,29.82,29.72,10,7,1,8,4,17,2.17,6,Rain-Thunderstorm,1
2013-4-12,77,60,42,48,42,37,96,61,24,30.68,30.04,29.94,10,10,8,5,0,,0.00,0,,180
2013-4-13,81,64,46,50,45,41,90,56,26,30.09,30.00,29.91,10,10,10,8,1,,0.00,0,,110
2013-4-14,77,67,57,62,56,46,90,74,48,29.88,29.81,29.73,10,10,10,8,3,20,0.00,5,Rain-Thunderstorm,140
2013-4-15,87,76,64,72,65,62,94,78,46,29.96,29.88,29.76,10,10,10,10,4,,0.00,4,,172
2013-4-16,82,78,73,72,71,70,94,80,69,30.07,29.99,29.87,10,9,3,8,4,,0.01,7,Rain,154
2013-4-17,84,80,75,72,70,69,89,76,62,30.08,29.98,29.84,10,10,7,12,5,22,0.01,7,Rain,155
2013-4-18,81,66,50,72,62,46,94,83,67,30.07,29.84,29.70,10,8,1,13,6,25,0.64,8,Rain-Thunderstorm,260
2013-4-19,63,53,43,45,36,30,86,60,31,30.90,30.22,30.02,10,10,10,13,5,23,0.00,1,,2
2013-4-20,71,54,37,44,38,32,97,62,28,31.05,30.29,30.18,10,10,10,8,1,,0.00,0,,120
2013-4-21,73,58,42,48,43,38,93,63,30,30.29,30.23,30.17,10,9,4,6,1,,0.00,1,,70
2013-4-22,80,63,46,52,48,43,92,64,32,30.20,30.13,30.04,10,9,5,6,1,,0.00,0,,100
2013-4-23,84,70,57,67,62,54,93,76,51,30.08,30.02,29.96,10,10,7,8,2,16,0.00,7,,205
2013-4-24,72,60,48,69,54,46,94,80,54,30.32,30.14,29.94,10,9,1,9,3,20,0.49,6,Rain-Thunderstorm,6
2013-4-25,71,60,50,49,43,38,83,60,31,31.04,30.37,30.30,10,10,10,8,4,20,0.00,3,,30
2013-4-26,73,63,53,67,59,45,90,74,60,30.33,30.24,30.09,10,10,8,6,1,,0.00,5,,140
2013-4-27,82,75,68,67,66,64,94,80,58,30.21,30.12,30.01,10,10,5,8,2,,0.00,6,,194
2013-4-28,80,72,64,67,65,61,94,86,52,30.09,30.01,29.94,10,6,2,5,0,,0.01,3,Rain,200
2013-4-29,86,72,57,67,59,50,100,81,30,30.04,29.95,29.89,10,5,0,5,0,,0.00,2,Fog,-1
2013-4-30,79,70,60,67,64,58,94,81,64,29.94,29.89,29.81,10,9,3,7,2,,0.00,5,Rain,113